sensor_id;sensor_type;location;lat;lon;timestamp;P1;durP1;ratioP1;P2;durP2;ratioP2
33738;SDS011;20063;51.730;11.110;2022-07-30T00:00:05;5.00;;;3.05;;
33738;SDS011;20063;51.730;11.110;2022-07-30T00:02:32;6.00;;;3.13;;
33738;SDS011;20063;51.730;11.110;2022-07-30T00:04:58;4.40;;;2.88;;
33738;SDS011;20063;51.730;11.110;2022-07-30T00:07:25;10.32;;;3.70;;
33738;SDS011;20063;51.730;11.110;2022-07-30T00:09:50;7.20;;;3.22;;
33738;SDS011;20063;51.730;11.110;2022-07-30T00:12:16;5.97;;;3.10;;
33738;SDS011;20063;51.730;11.110;2022-07-30T00:14:42;12.68;;;3.17;;
33738;SDS011;20063;51.730;11.110;2022-07-30T00:17:08;8.65;;;3.75;;
33738;SDS011;20063;51.730;11.110;2022-07-30T00:19:34;10.00;;;3.72;;
33738;SDS011;20063;51.730;11.110;2022-07-30T00:22:00;8.70;;;3.28;;
33738;SDS011;20063;51.730;11.110;2022-07-30T00:24:25;24.13;;;4.10;;
33738;SDS011;20063;51.730;11.110;2022-07-30T00:26:51;8.82;;;3.65;;
33738;SDS011;20063;51.730;11.110;2022-07-30T00:29:16;7.65;;;3.90;;
33738;SDS011;20063;51.730;11.110;2022-07-30T00:31:43;16.08;;;3.63;;
33738;SDS011;20063;51.730;11.110;2022-07-30T00:34:08;14.35;;;3.17;;
33738;SDS011;20063;51.730;11.110;2022-07-30T00:36:35;9.50;;;3.65;;
33738;SDS011;20063;51.730;11.110;2022-07-30T00:39:01;11.75;;;4.13;;
33738;SDS011;20063;51.730;11.110;2022-07-30T00:41:29;11.32;;;4.50;;
33738;SDS011;20063;51.730;11.110;2022-07-30T00:43:55;11.00;;;4.40;;
33738;SDS011;20063;51.730;11.110;2022-07-30T00:46:21;13.00;;;4.38;;
33738;SDS011;20063;51.730;11.110;2022-07-30T00:48:46;12.63;;;4.28;;
33738;SDS011;20063;51.730;11.110;2022-07-30T00:51:14;14.45;;;4.15;;
33738;SDS011;20063;51.730;11.110;2022-07-30T00:53:39;10.73;;;4.28;;
33738;SDS011;20063;51.730;11.110;2022-07-30T00:56:06;12.27;;;4.95;;
33738;SDS011;20063;51.730;11.110;2022-07-30T00:58:32;15.48;;;4.70;;
33738;SDS011;20063;51.730;11.110;2022-07-30T01:00:59;12.02;;;4.43;;
33738;SDS011;20063;51.730;11.110;2022-07-30T01:03:24;11.55;;;4.40;;
33738;SDS011;20063;51.730;11.110;2022-07-30T01:05:59;16.55;;;4.80;;
33738;SDS011;20063;51.730;11.110;2022-07-30T01:08:25;10.57;;;4.85;;
33738;SDS011;20063;51.730;11.110;2022-07-30T01:10:51;13.70;;;4.40;;
33738;SDS011;20063;51.730;11.110;2022-07-30T01:13:16;10.13;;;5.55;;
33738;SDS011;20063;51.730;11.110;2022-07-30T01:15:43;14.50;;;5.10;;
33738;SDS011;20063;51.730;11.110;2022-07-30T01:18:09;13.90;;;4.75;;
33738;SDS011;20063;51.730;11.110;2022-07-30T01:23:24;6.18;;;3.88;;
33738;SDS011;20063;51.730;11.110;2022-07-30T01:26:09;7.70;;;4.20;;
33738;SDS011;20063;51.730;11.110;2022-07-30T01:28:40;14.85;;;4.78;;
33738;SDS011;20063;51.730;11.110;2022-07-30T01:31:09;9.43;;;4.40;;
33738;SDS011;20063;51.730;11.110;2022-07-30T01:33:36;9.13;;;4.60;;
33738;SDS011;20063;51.730;11.110;2022-07-30T01:36:07;10.88;;;4.72;;
33738;SDS011;20063;51.730;11.110;2022-07-30T01:38:35;9.45;;;4.72;;
33738;SDS011;20063;51.730;11.110;2022-07-30T01:41:05;8.80;;;4.35;;
33738;SDS011;20063;51.730;11.110;2022-07-30T01:43:31;7.63;;;3.85;;
33738;SDS011;20063;51.730;11.110;2022-07-30T01:46:00;9.20;;;3.88;;
33738;SDS011;20063;51.730;11.110;2022-07-30T01:48:29;8.23;;;3.75;;
33738;SDS011;20063;51.730;11.110;2022-07-30T01:50:57;10.20;;;4.30;;
33738;SDS011;20063;51.730;11.110;2022-07-30T01:53:27;8.25;;;4.60;;
33738;SDS011;20063;51.730;11.110;2022-07-30T01:55:55;13.02;;;5.47;;
33738;SDS011;20063;51.730;11.110;2022-07-30T01:58:25;8.88;;;3.67;;
33738;SDS011;20063;51.730;11.110;2022-07-30T02:00:58;6.13;;;3.90;;
33738;SDS011;20063;51.730;11.110;2022-07-30T02:03:24;5.55;;;3.30;;
33738;SDS011;20063;51.730;11.110;2022-07-30T02:05:52;6.82;;;4.10;;
33738;SDS011;20063;51.730;11.110;2022-07-30T02:08:27;12.38;;;4.70;;
33738;SDS011;20063;51.730;11.110;2022-07-30T02:11:10;6.35;;;3.83;;
33738;SDS011;20063;51.730;11.110;2022-07-30T02:13:49;7.00;;;4.28;;
33738;SDS011;20063;51.730;11.110;2022-07-30T02:16:26;12.10;;;4.70;;
33738;SDS011;20063;51.730;11.110;2022-07-30T02:19:02;7.80;;;4.25;;
33738;SDS011;20063;51.730;11.110;2022-07-30T02:21:34;9.55;;;4.30;;
33738;SDS011;20063;51.730;11.110;2022-07-30T02:24:09;9.60;;;4.53;;
33738;SDS011;20063;51.730;11.110;2022-07-30T02:26:38;7.35;;;4.57;;
33738;SDS011;20063;51.730;11.110;2022-07-30T02:29:05;10.77;;;4.88;;
33738;SDS011;20063;51.730;11.110;2022-07-30T02:31:48;7.93;;;4.60;;
33738;SDS011;20063;51.730;11.110;2022-07-30T02:34:15;8.20;;;4.65;;
33738;SDS011;20063;51.730;11.110;2022-07-30T02:36:45;12.20;;;5.25;;
33738;SDS011;20063;51.730;11.110;2022-07-30T02:39:12;11.23;;;5.13;;
33738;SDS011;20063;51.730;11.110;2022-07-30T02:41:38;12.25;;;4.43;;
33738;SDS011;20063;51.730;11.110;2022-07-30T02:44:05;15.68;;;4.90;;
33738;SDS011;20063;51.730;11.110;2022-07-30T02:46:52;17.90;;;5.35;;
33738;SDS011;20063;51.730;11.110;2022-07-30T02:49:19;10.30;;;5.25;;
33738;SDS011;20063;51.730;11.110;2022-07-30T02:51:50;12.80;;;4.60;;
33738;SDS011;20063;51.730;11.110;2022-07-30T02:54:16;19.02;;;5.88;;
33738;SDS011;20063;51.730;11.110;2022-07-30T02:56:45;10.48;;;4.97;;
33738;SDS011;20063;51.730;11.110;2022-07-30T02:59:13;9.27;;;5.15;;
33738;SDS011;20063;51.730;11.110;2022-07-30T03:01:49;27.55;;;6.47;;
33738;SDS011;20063;51.730;11.110;2022-07-30T03:04:17;10.60;;;4.63;;
33738;SDS011;20063;51.730;11.110;2022-07-30T03:06:47;11.70;;;4.75;;
33738;SDS011;20063;51.730;11.110;2022-07-30T03:09:14;8.68;;;4.18;;
33738;SDS011;20063;51.730;11.110;2022-07-30T03:14:32;5.28;;;3.47;;
33738;SDS011;20063;51.730;11.110;2022-07-30T03:17:03;18.67;;;5.13;;
33738;SDS011;20063;51.730;11.110;2022-07-30T03:19:31;9.57;;;4.68;;
33738;SDS011;20063;51.730;11.110;2022-07-30T03:22:00;11.13;;;4.10;;
33738;SDS011;20063;51.730;11.110;2022-07-30T03:24:28;5.60;;;3.58;;
33738;SDS011;20063;51.730;11.110;2022-07-30T03:26:55;7.45;;;3.90;;
33738;SDS011;20063;51.730;11.110;2022-07-30T03:29:21;11.88;;;3.67;;
33738;SDS011;20063;51.730;11.110;2022-07-30T03:31:56;11.38;;;4.57;;
33738;SDS011;20063;51.730;11.110;2022-07-30T03:34:23;15.10;;;4.07;;
33738;SDS011;20063;51.730;11.110;2022-07-30T03:36:54;10.00;;;4.38;;
33738;SDS011;20063;51.730;11.110;2022-07-30T03:39:21;8.85;;;4.57;;
33738;SDS011;20063;51.730;11.110;2022-07-30T03:41:47;13.00;;;4.10;;
33738;SDS011;20063;51.730;11.110;2022-07-30T03:44:14;8.50;;;4.05;;
33738;SDS011;20063;51.730;11.110;2022-07-30T03:46:52;20.25;;;5.10;;
33738;SDS011;20063;51.730;11.110;2022-07-30T03:49:20;15.23;;;4.40;;
33738;SDS011;20063;51.730;11.110;2022-07-30T03:51:47;12.30;;;4.13;;
33738;SDS011;20063;51.730;11.110;2022-07-30T03:54:14;15.25;;;3.90;;
33738;SDS011;20063;51.730;11.110;2022-07-30T03:56:48;10.73;;;4.25;;
33738;SDS011;20063;51.730;11.110;2022-07-30T03:59:14;15.05;;;4.63;;
33738;SDS011;20063;51.730;11.110;2022-07-30T04:01:41;4.75;;;3.42;;
33738;SDS011;20063;51.730;11.110;2022-07-30T04:04:06;8.93;;;4.00;;
33738;SDS011;20063;51.730;11.110;2022-07-30T04:06:36;6.72;;;3.97;;
33738;SDS011;20063;51.730;11.110;2022-07-30T04:09:10;7.55;;;3.75;;
33738;SDS011;20063;51.730;11.110;2022-07-30T04:11:36;11.60;;;4.10;;
33738;SDS011;20063;51.730;11.110;2022-07-30T04:14:03;9.43;;;4.20;;
33738;SDS011;20063;51.730;11.110;2022-07-30T04:19:33;4.68;;;3.47;;
33738;SDS011;20063;51.730;11.110;2022-07-30T04:22:10;10.95;;;4.20;;
33738;SDS011;20063;51.730;11.110;2022-07-30T04:24:37;10.85;;;4.85;;
33738;SDS011;20063;51.730;11.110;2022-07-30T04:29:55;11.25;;;4.03;;
33738;SDS011;20063;51.730;11.110;2022-07-30T04:32:21;5.72;;;3.83;;
33738;SDS011;20063;51.730;11.110;2022-07-30T04:34:52;9.00;;;4.53;;
33738;SDS011;20063;51.730;11.110;2022-07-30T04:37:22;7.32;;;4.05;;
33738;SDS011;20063;51.730;11.110;2022-07-30T04:40:02;11.50;;;4.40;;
33738;SDS011;20063;51.730;11.110;2022-07-30T04:42:28;19.20;;;5.57;;
33738;SDS011;20063;51.730;11.110;2022-07-30T04:44:57;8.65;;;4.25;;
33738;SDS011;20063;51.730;11.110;2022-07-30T04:47:23;7.80;;;3.88;;
33738;SDS011;20063;51.730;11.110;2022-07-30T04:49:49;9.50;;;4.80;;
33738;SDS011;20063;51.730;11.110;2022-07-30T04:52:16;6.03;;;3.80;;
33738;SDS011;20063;51.730;11.110;2022-07-30T04:54:44;6.95;;;4.10;;
33738;SDS011;20063;51.730;11.110;2022-07-30T04:57:22;16.80;;;5.40;;
33738;SDS011;20063;51.730;11.110;2022-07-30T05:02:24;9.73;;;4.70;;
33738;SDS011;20063;51.730;11.110;2022-07-30T05:04:53;7.88;;;4.75;;
33738;SDS011;20063;51.730;11.110;2022-07-30T05:07:20;9.52;;;4.22;;
33738;SDS011;20063;51.730;11.110;2022-07-30T05:09:49;11.25;;;4.80;;
33738;SDS011;20063;51.730;11.110;2022-07-30T05:12:15;6.53;;;4.20;;
33738;SDS011;20063;51.730;11.110;2022-07-30T05:14:44;8.15;;;4.88;;
33738;SDS011;20063;51.730;11.110;2022-07-30T05:17:10;5.97;;;4.53;;
33738;SDS011;20063;51.730;11.110;2022-07-30T05:19:41;4.35;;;3.88;;
33738;SDS011;20063;51.730;11.110;2022-07-30T05:22:07;5.60;;;4.20;;
33738;SDS011;20063;51.730;11.110;2022-07-30T05:24:33;11.15;;;5.30;;
33738;SDS011;20063;51.730;11.110;2022-07-30T05:26:58;10.85;;;4.57;;
33738;SDS011;20063;51.730;11.110;2022-07-30T05:29:24;7.53;;;4.72;;
33738;SDS011;20063;51.730;11.110;2022-07-30T05:32:00;8.93;;;4.95;;
33738;SDS011;20063;51.730;11.110;2022-07-30T05:34:25;8.73;;;4.82;;
33738;SDS011;20063;51.730;11.110;2022-07-30T05:36:51;8.02;;;4.97;;
33738;SDS011;20063;51.730;11.110;2022-07-30T05:42:09;4.80;;;4.15;;
33738;SDS011;20063;51.730;11.110;2022-07-30T05:47:05;9.77;;;4.53;;
33738;SDS011;20063;51.730;11.110;2022-07-30T05:49:40;5.28;;;3.38;;
33738;SDS011;20063;51.730;11.110;2022-07-30T05:52:05;5.88;;;3.47;;
33738;SDS011;20063;51.730;11.110;2022-07-30T05:54:41;5.70;;;4.35;;
33738;SDS011;20063;51.730;11.110;2022-07-30T05:57:07;7.60;;;4.35;;
33738;SDS011;20063;51.730;11.110;2022-07-30T05:59:32;5.95;;;4.47;;
33738;SDS011;20063;51.730;11.110;2022-07-30T06:02:06;6.60;;;4.45;;
33738;SDS011;20063;51.730;11.110;2022-07-30T06:04:32;6.13;;;4.32;;
33738;SDS011;20063;51.730;11.110;2022-07-30T06:07:06;8.32;;;4.80;;
33738;SDS011;20063;51.730;11.110;2022-07-30T06:09:32;11.10;;;5.20;;
33738;SDS011;20063;51.730;11.110;2022-07-30T06:11:57;10.90;;;5.63;;
33738;SDS011;20063;51.730;11.110;2022-07-30T06:14:23;9.02;;;4.43;;
33738;SDS011;20063;51.730;11.110;2022-07-30T06:16:49;15.43;;;5.32;;
33738;SDS011;20063;51.730;11.110;2022-07-30T06:19:26;4.70;;;4.25;;
33738;SDS011;20063;51.730;11.110;2022-07-30T06:21:52;7.82;;;4.40;;
33738;SDS011;20063;51.730;11.110;2022-07-30T06:24:18;9.85;;;4.75;;
33738;SDS011;20063;51.730;11.110;2022-07-30T06:26:45;8.68;;;4.93;;
33738;SDS011;20063;51.730;11.110;2022-07-30T06:29:24;8.30;;;4.45;;
33738;SDS011;20063;51.730;11.110;2022-07-30T06:31:50;9.43;;;4.43;;
33738;SDS011;20063;51.730;11.110;2022-07-30T06:34:20;7.80;;;4.70;;
33738;SDS011;20063;51.730;11.110;2022-07-30T06:36:46;7.57;;;4.80;;
33738;SDS011;20063;51.730;11.110;2022-07-30T06:39:12;8.45;;;5.07;;
33738;SDS011;20063;51.730;11.110;2022-07-30T06:41:37;4.60;;;4.05;;
33738;SDS011;20063;51.730;11.110;2022-07-30T06:44:09;5.22;;;4.18;;
33738;SDS011;20063;51.730;11.110;2022-07-30T06:46:35;10.25;;;4.28;;
33738;SDS011;20063;51.730;11.110;2022-07-30T06:49:01;8.57;;;4.40;;
33738;SDS011;20063;51.730;11.110;2022-07-30T06:51:26;9.57;;;4.53;;
33738;SDS011;20063;51.730;11.110;2022-07-30T06:53:52;9.68;;;4.28;;
33738;SDS011;20063;51.730;11.110;2022-07-30T06:56:18;6.90;;;4.47;;
33738;SDS011;20063;51.730;11.110;2022-07-30T06:58:43;5.85;;;4.43;;
33738;SDS011;20063;51.730;11.110;2022-07-30T07:01:09;8.90;;;5.13;;
33738;SDS011;20063;51.730;11.110;2022-07-30T07:03:35;7.70;;;4.85;;
33738;SDS011;20063;51.730;11.110;2022-07-30T07:06:00;8.00;;;4.40;;
33738;SDS011;20063;51.730;11.110;2022-07-30T07:08:34;11.73;;;5.88;;
33738;SDS011;20063;51.730;11.110;2022-07-30T07:11:00;6.88;;;5.40;;
33738;SDS011;20063;51.730;11.110;2022-07-30T07:13:30;8.63;;;5.05;;
33738;SDS011;20063;51.730;11.110;2022-07-30T07:15:56;7.30;;;4.72;;
33738;SDS011;20063;51.730;11.110;2022-07-30T07:18:35;6.60;;;5.13;;
33738;SDS011;20063;51.730;11.110;2022-07-30T07:21:04;4.97;;;4.43;;
33738;SDS011;20063;51.730;11.110;2022-07-30T07:23:30;12.15;;;5.07;;
33738;SDS011;20063;51.730;11.110;2022-07-30T07:25:55;9.98;;;4.88;;
33738;SDS011;20063;51.730;11.110;2022-07-30T07:28:21;5.53;;;4.22;;
33738;SDS011;20063;51.730;11.110;2022-07-30T07:30:47;10.93;;;4.78;;
33738;SDS011;20063;51.730;11.110;2022-07-30T07:33:22;6.90;;;4.47;;
33738;SDS011;20063;51.730;11.110;2022-07-30T07:35:48;6.05;;;4.45;;
33738;SDS011;20063;51.730;11.110;2022-07-30T07:38:27;6.63;;;4.40;;
33738;SDS011;20063;51.730;11.110;2022-07-30T07:40:52;12.55;;;4.80;;
33738;SDS011;20063;51.730;11.110;2022-07-30T07:43:27;7.35;;;4.65;;
33738;SDS011;20063;51.730;11.110;2022-07-30T07:45:53;7.90;;;4.43;;
33738;SDS011;20063;51.730;11.110;2022-07-30T07:48:25;7.57;;;4.78;;
33738;SDS011;20063;51.730;11.110;2022-07-30T07:50:51;13.43;;;5.32;;
33738;SDS011;20063;51.730;11.110;2022-07-30T07:53:27;11.40;;;5.03;;
33738;SDS011;20063;51.730;11.110;2022-07-30T07:55:52;11.15;;;4.15;;
33738;SDS011;20063;51.730;11.110;2022-07-30T07:58:35;4.75;;;3.97;;
33738;SDS011;20063;51.730;11.110;2022-07-30T08:01:01;10.25;;;4.07;;
33738;SDS011;20063;51.730;11.110;2022-07-30T08:03:26;4.93;;;3.85;;
33738;SDS011;20063;51.730;11.110;2022-07-30T08:05:52;8.45;;;4.10;;
33738;SDS011;20063;51.730;11.110;2022-07-30T08:08:18;7.38;;;4.07;;
33738;SDS011;20063;51.730;11.110;2022-07-30T08:10:43;7.03;;;4.72;;
33738;SDS011;20063;51.730;11.110;2022-07-30T08:13:09;7.35;;;4.05;;
33738;SDS011;20063;51.730;11.110;2022-07-30T08:15:34;7.07;;;4.35;;
33738;SDS011;20063;51.730;11.110;2022-07-30T08:21:12;6.63;;;4.28;;
33738;SDS011;20063;51.730;11.110;2022-07-30T08:23:39;6.47;;;4.05;;
33738;SDS011;20063;51.730;11.110;2022-07-30T08:26:05;6.05;;;3.60;;
33738;SDS011;20063;51.730;11.110;2022-07-30T08:28:31;8.02;;;3.30;;
33738;SDS011;20063;51.730;11.110;2022-07-30T08:30:56;8.27;;;4.85;;
33738;SDS011;20063;51.730;11.110;2022-07-30T08:33:24;9.30;;;4.75;;
33738;SDS011;20063;51.730;11.110;2022-07-30T08:35:50;8.38;;;4.53;;
33738;SDS011;20063;51.730;11.110;2022-07-30T08:38:15;4.90;;;4.03;;
33738;SDS011;20063;51.730;11.110;2022-07-30T08:40:41;6.28;;;4.38;;
33738;SDS011;20063;51.730;11.110;2022-07-30T08:43:07;8.50;;;4.45;;
33738;SDS011;20063;51.730;11.110;2022-07-30T08:45:33;12.63;;;4.20;;
33738;SDS011;20063;51.730;11.110;2022-07-30T08:48:02;10.43;;;4.60;;
33738;SDS011;20063;51.730;11.110;2022-07-30T08:50:32;6.30;;;4.00;;
33738;SDS011;20063;51.730;11.110;2022-07-30T08:53:00;7.93;;;3.92;;
33738;SDS011;20063;51.730;11.110;2022-07-30T08:55:25;7.63;;;4.60;;
33738;SDS011;20063;51.730;11.110;2022-07-30T08:58:00;7.15;;;3.53;;
33738;SDS011;20063;51.730;11.110;2022-07-30T09:00:27;6.00;;;3.95;;
33738;SDS011;20063;51.730;11.110;2022-07-30T09:02:59;6.63;;;3.60;;
33738;SDS011;20063;51.730;11.110;2022-07-30T09:05:25;7.03;;;4.25;;
33738;SDS011;20063;51.730;11.110;2022-07-30T09:07:52;6.68;;;4.20;;
33738;SDS011;20063;51.730;11.110;2022-07-30T09:10:17;4.47;;;3.50;;
33738;SDS011;20063;51.730;11.110;2022-07-30T09:12:47;4.60;;;3.78;;
33738;SDS011;20063;51.730;11.110;2022-07-30T09:15:14;10.13;;;4.57;;
33738;SDS011;20063;51.730;11.110;2022-07-30T09:20:11;7.75;;;4.80;;
33738;SDS011;20063;51.730;11.110;2022-07-30T09:22:43;9.07;;;4.60;;
33738;SDS011;20063;51.730;11.110;2022-07-30T09:25:11;7.53;;;3.95;;
33738;SDS011;20063;51.730;11.110;2022-07-30T09:27:46;9.63;;;4.57;;
33738;SDS011;20063;51.730;11.110;2022-07-30T09:30:13;7.78;;;4.40;;
33738;SDS011;20063;51.730;11.110;2022-07-30T09:32:51;8.93;;;4.90;;
33738;SDS011;20063;51.730;11.110;2022-07-30T09:35:18;6.07;;;4.15;;
33738;SDS011;20063;51.730;11.110;2022-07-30T09:37:59;7.05;;;4.10;;
33738;SDS011;20063;51.730;11.110;2022-07-30T09:40:24;25.10;;;6.45;;
33738;SDS011;20063;51.730;11.110;2022-07-30T09:45:53;9.25;;;4.53;;
33738;SDS011;20063;51.730;11.110;2022-07-30T09:48:22;9.32;;;4.55;;
33738;SDS011;20063;51.730;11.110;2022-07-30T09:57:14;11.20;;;4.30;;
33738;SDS011;20063;51.730;11.110;2022-07-30T09:59:39;6.45;;;3.70;;
33738;SDS011;20063;51.730;11.110;2022-07-30T10:02:07;10.77;;;3.90;;
33738;SDS011;20063;51.730;11.110;2022-07-30T10:04:45;7.57;;;4.40;;
33738;SDS011;20063;51.730;11.110;2022-07-30T10:07:20;6.13;;;4.10;;
33738;SDS011;20063;51.730;11.110;2022-07-30T10:09:47;8.95;;;3.92;;
33738;SDS011;20063;51.730;11.110;2022-07-30T10:12:27;7.93;;;4.00;;
33738;SDS011;20063;51.730;11.110;2022-07-30T10:15:00;4.10;;;3.33;;
33738;SDS011;20063;51.730;11.110;2022-07-30T10:17:28;6.15;;;3.75;;
33738;SDS011;20063;51.730;11.110;2022-07-30T10:20:03;4.90;;;2.70;;
33738;SDS011;20063;51.730;11.110;2022-07-30T10:22:33;5.88;;;2.90;;
33738;SDS011;20063;51.730;11.110;2022-07-30T10:25:00;6.18;;;3.67;;
33738;SDS011;20063;51.730;11.110;2022-07-30T10:27:26;5.07;;;3.58;;
33738;SDS011;20063;51.730;11.110;2022-07-30T10:29:52;5.07;;;3.20;;
33738;SDS011;20063;51.730;11.110;2022-07-30T10:32:18;2.60;;;2.40;;
33738;SDS011;20063;51.730;11.110;2022-07-30T10:34:44;3.38;;;3.15;;
33738;SDS011;20063;51.730;11.110;2022-07-30T10:37:11;9.00;;;3.20;;
33738;SDS011;20063;51.730;11.110;2022-07-30T10:39:44;2.92;;;2.70;;
33738;SDS011;20063;51.730;11.110;2022-07-30T10:42:43;2.92;;;2.70;;
33738;SDS011;20063;51.730;11.110;2022-07-30T10:48:37;3.00;;;2.33;;
33738;SDS011;20063;51.730;11.110;2022-07-30T10:51:03;3.58;;;2.75;;
33738;SDS011;20063;51.730;11.110;2022-07-30T10:53:42;3.83;;;2.63;;
33738;SDS011;20063;51.730;11.110;2022-07-30T10:56:16;4.80;;;3.55;;
33738;SDS011;20063;51.730;11.110;2022-07-30T11:09:46;4.63;;;3.35;;
33738;SDS011;20063;51.730;11.110;2022-07-30T11:12:13;6.35;;;3.08;;
33738;SDS011;20063;51.730;11.110;2022-07-30T11:17:13;5.30;;;3.88;;
33738;SDS011;20063;51.730;11.110;2022-07-30T11:27:53;3.90;;;2.72;;
33738;SDS011;20063;51.730;11.110;2022-07-30T11:33:19;9.57;;;3.75;;
33738;SDS011;20063;51.730;11.110;2022-07-30T11:38:56;5.18;;;3.60;;
33738;SDS011;20063;51.730;11.110;2022-07-30T11:41:33;7.95;;;4.35;;
33738;SDS011;20063;51.730;11.110;2022-07-30T11:46:46;6.22;;;2.97;;
33738;SDS011;20063;51.730;11.110;2022-07-30T11:49:12;7.72;;;3.67;;
33738;SDS011;20063;51.730;11.110;2022-07-30T11:54:32;4.75;;;3.40;;
33738;SDS011;20063;51.730;11.110;2022-07-30T11:56:57;6.00;;;3.20;;
33738;SDS011;20063;51.730;11.110;2022-07-30T11:59:23;6.30;;;2.83;;
33738;SDS011;20063;51.730;11.110;2022-07-30T12:01:53;6.28;;;3.55;;
33738;SDS011;20063;51.730;11.110;2022-07-30T12:04:41;9.93;;;4.18;;
33738;SDS011;20063;51.730;11.110;2022-07-30T12:07:07;5.25;;;3.40;;
33738;SDS011;20063;51.730;11.110;2022-07-30T12:09:33;8.25;;;3.10;;
33738;SDS011;20063;51.730;11.110;2022-07-30T12:11:58;4.13;;;3.08;;
33738;SDS011;20063;51.730;11.110;2022-07-30T12:14:35;3.30;;;2.88;;
33738;SDS011;20063;51.730;11.110;2022-07-30T12:17:02;3.38;;;2.47;;
33738;SDS011;20063;51.730;11.110;2022-07-30T12:19:45;7.50;;;2.55;;
33738;SDS011;20063;51.730;11.110;2022-07-30T12:22:11;4.22;;;2.50;;
33738;SDS011;20063;51.730;11.110;2022-07-30T12:24:40;2.92;;;2.72;;
33738;SDS011;20063;51.730;11.110;2022-07-30T12:27:06;3.05;;;2.17;;
33738;SDS011;20063;51.730;11.110;2022-07-30T12:29:36;17.08;;;3.40;;
33738;SDS011;20063;51.730;11.110;2022-07-30T12:32:02;4.63;;;2.45;;
33738;SDS011;20063;51.730;11.110;2022-07-30T12:37:20;5.70;;;2.90;;
33738;SDS011;20063;51.730;11.110;2022-07-30T12:43:11;4.18;;;2.80;;
33738;SDS011;20063;51.730;11.110;2022-07-30T12:45:37;2.78;;;2.45;;
33738;SDS011;20063;51.730;11.110;2022-07-30T12:48:08;10.20;;;2.90;;
33738;SDS011;20063;51.730;11.110;2022-07-30T12:50:35;4.25;;;2.65;;
33738;SDS011;20063;51.730;11.110;2022-07-30T12:53:00;4.40;;;2.90;;
33738;SDS011;20063;51.730;11.110;2022-07-30T12:55:30;4.10;;;3.13;;
33738;SDS011;20063;51.730;11.110;2022-07-30T12:57:58;4.35;;;2.97;;
33738;SDS011;20063;51.730;11.110;2022-07-30T13:00:30;3.42;;;2.80;;
33738;SDS011;20063;51.730;11.110;2022-07-30T13:02:56;5.13;;;2.83;;
33738;SDS011;20063;51.730;11.110;2022-07-30T13:11:53;4.88;;;3.03;;
33738;SDS011;20063;51.730;11.110;2022-07-30T13:17:01;5.80;;;2.88;;
33738;SDS011;20063;51.730;11.110;2022-07-30T13:21:59;3.50;;;2.58;;
33738;SDS011;20063;51.730;11.110;2022-07-30T13:24:30;5.25;;;2.97;;
33738;SDS011;20063;51.730;11.110;2022-07-30T13:26:57;5.57;;;2.63;;
33738;SDS011;20063;51.730;11.110;2022-07-30T13:29:23;5.47;;;2.90;;
33738;SDS011;20063;51.730;11.110;2022-07-30T13:31:51;3.97;;;3.08;;
33738;SDS011;20063;51.730;11.110;2022-07-30T13:34:16;4.15;;;3.00;;
33738;SDS011;20063;51.730;11.110;2022-07-30T13:36:48;4.15;;;2.85;;
33738;SDS011;20063;51.730;11.110;2022-07-30T13:39:13;3.13;;;2.83;;
33738;SDS011;20063;51.730;11.110;2022-07-30T13:41:48;4.90;;;2.42;;
33738;SDS011;20063;51.730;11.110;2022-07-30T13:44:14;3.50;;;2.28;;
33738;SDS011;20063;51.730;11.110;2022-07-30T13:46:42;2.60;;;2.28;;
33738;SDS011;20063;51.730;11.110;2022-07-30T13:49:07;4.45;;;2.35;;
33738;SDS011;20063;51.730;11.110;2022-07-30T13:51:42;3.97;;;2.50;;
33738;SDS011;20063;51.730;11.110;2022-07-30T13:54:07;2.45;;;2.25;;
33738;SDS011;20063;51.730;11.110;2022-07-30T13:56:34;4.00;;;2.78;;
33738;SDS011;20063;51.730;11.110;2022-07-30T13:59:07;4.43;;;2.63;;
33738;SDS011;20063;51.730;11.110;2022-07-30T14:01:39;3.05;;;2.20;;
33738;SDS011;20063;51.730;11.110;2022-07-30T14:04:05;6.60;;;2.38;;
33738;SDS011;20063;51.730;11.110;2022-07-30T14:06:30;2.90;;;2.60;;
33738;SDS011;20063;51.730;11.110;2022-07-30T14:08:58;4.15;;;2.08;;
33738;SDS011;20063;51.730;11.110;2022-07-30T14:11:24;2.78;;;2.30;;
33738;SDS011;20063;51.730;11.110;2022-07-30T14:13:49;4.20;;;2.10;;
33738;SDS011;20063;51.730;11.110;2022-07-30T14:16:17;3.78;;;2.05;;
33738;SDS011;20063;51.730;11.110;2022-07-30T14:18:43;3.30;;;2.00;;
33738;SDS011;20063;51.730;11.110;2022-07-30T14:21:11;3.72;;;1.98;;
33738;SDS011;20063;51.730;11.110;2022-07-30T14:23:37;5.72;;;2.20;;
33738;SDS011;20063;51.730;11.110;2022-07-30T14:26:09;2.03;;;1.80;;
33738;SDS011;20063;51.730;11.110;2022-07-30T14:28:34;2.53;;;1.80;;
33738;SDS011;20063;51.730;11.110;2022-07-30T14:31:01;5.15;;;1.90;;
33738;SDS011;20063;51.730;11.110;2022-07-30T14:33:27;3.20;;;2.05;;
33738;SDS011;20063;51.730;11.110;2022-07-30T14:35:53;2.58;;;2.05;;
33738;SDS011;20063;51.730;11.110;2022-07-30T14:38:19;2.63;;;1.85;;
33738;SDS011;20063;51.730;11.110;2022-07-30T14:40:45;2.72;;;1.83;;
33738;SDS011;20063;51.730;11.110;2022-07-30T14:43:11;6.53;;;2.45;;
33738;SDS011;20063;51.730;11.110;2022-07-30T14:45:40;2.75;;;2.22;;
33738;SDS011;20063;51.730;11.110;2022-07-30T14:48:06;3.15;;;2.30;;
33738;SDS011;20063;51.730;11.110;2022-07-30T14:50:36;3.72;;;1.70;;
33738;SDS011;20063;51.730;11.110;2022-07-30T14:53:02;2.47;;;1.80;;
33738;SDS011;20063;51.730;11.110;2022-07-30T14:55:28;1.67;;;1.52;;
33738;SDS011;20063;51.730;11.110;2022-07-30T14:57:54;6.68;;;2.17;;
33738;SDS011;20063;51.730;11.110;2022-07-30T15:00:20;3.80;;;2.10;;
33738;SDS011;20063;51.730;11.110;2022-07-30T15:02:46;2.03;;;1.83;;
33738;SDS011;20063;51.730;11.110;2022-07-30T15:05:11;2.97;;;2.08;;
33738;SDS011;20063;51.730;11.110;2022-07-30T15:07:37;2.28;;;1.60;;
33738;SDS011;20063;51.730;11.110;2022-07-30T15:10:03;2.22;;;1.30;;
33738;SDS011;20063;51.730;11.110;2022-07-30T15:12:40;2.65;;;1.90;;
33738;SDS011;20063;51.730;11.110;2022-07-30T15:15:05;1.90;;;1.50;;
33738;SDS011;20063;51.730;11.110;2022-07-30T15:17:33;2.20;;;1.77;;
33738;SDS011;20063;51.730;11.110;2022-07-30T15:20:01;6.55;;;1.60;;
33738;SDS011;20063;51.730;11.110;2022-07-30T15:22:27;4.25;;;2.03;;
33738;SDS011;20063;51.730;11.110;2022-07-30T15:24:52;1.98;;;1.83;;
33738;SDS011;20063;51.730;11.110;2022-07-30T15:27:18;3.20;;;2.20;;
33738;SDS011;20063;51.730;11.110;2022-07-30T15:29:43;4.85;;;1.83;;
33738;SDS011;20063;51.730;11.110;2022-07-30T15:32:10;2.92;;;1.77;;
33738;SDS011;20063;51.730;11.110;2022-07-30T15:34:35;2.05;;;1.70;;
33738;SDS011;20063;51.730;11.110;2022-07-30T15:37:01;5.28;;;2.47;;
33738;SDS011;20063;51.730;11.110;2022-07-30T15:39:27;2.33;;;1.80;;
33738;SDS011;20063;51.730;11.110;2022-07-30T15:41:56;2.80;;;1.52;;
33738;SDS011;20063;51.730;11.110;2022-07-30T15:44:22;2.42;;;2.22;;
33738;SDS011;20063;51.730;11.110;2022-07-30T15:49:19;1.90;;;1.65;;
33738;SDS011;20063;51.730;11.110;2022-07-30T15:51:46;5.80;;;2.10;;
33738;SDS011;20063;51.730;11.110;2022-07-30T15:54:16;3.15;;;2.20;;
33738;SDS011;20063;51.730;11.110;2022-07-30T15:56:43;2.92;;;2.22;;
33738;SDS011;20063;51.730;11.110;2022-07-30T15:59:10;5.88;;;2.20;;
33738;SDS011;20063;51.730;11.110;2022-07-30T16:01:37;4.95;;;3.13;;
33738;SDS011;20063;51.730;11.110;2022-07-30T16:04:03;4.10;;;2.20;;
33738;SDS011;20063;51.730;11.110;2022-07-30T16:06:29;2.70;;;1.98;;
33738;SDS011;20063;51.730;11.110;2022-07-30T16:08:57;3.13;;;2.28;;